createdAt,value
2023-05-19T00:00:35.000Z,15.903225806451672
2023-05-19T00:01:37.000Z,15.419354838709733
2023-05-19T00:02:39.000Z,11.83870967741938
2023-05-19T00:03:41.000Z,10.193548387096786
2023-05-19T00:04:44.000Z,14.354838709677466
2023-05-19T00:05:46.000Z,14.354838709677466
2023-05-19T00:06:48.000Z,9.806451612903235
2023-05-19T00:07:50.000Z,9.709677419354847
2023-05-19T00:08:52.000Z,9.806451612903235
2023-05-19T00:09:54.000Z,10.00000000000001
2023-05-19T00:10:56.000Z,10.00000000000001
2023-05-19T00:11:58.000Z,10.096774193548399
2023-05-19T00:13:01.000Z,10.193548387096786
2023-05-19T00:14:03.000Z,10.193548387096786
2023-05-19T00:15:05.000Z,10.193548387096786
2023-05-19T00:16:07.000Z,10.193548387096786
2023-05-19T00:17:09.000Z,10.290322580645174
2023-05-19T00:18:11.000Z,10.290322580645174
2023-05-19T00:19:13.000Z,10.290322580645174
2023-05-19T00:20:16.000Z,10.387096774193562
2023-05-19T00:21:18.000Z,10.387096774193562
2023-05-19T00:22:20.000Z,10.387096774193562
2023-05-19T00:23:22.000Z,10.387096774193562
2023-05-19T00:24:24.000Z,10.48387096774195
2023-05-19T00:25:26.000Z,10.48387096774195
2023-05-19T00:26:28.000Z,10.48387096774195
2023-05-19T00:27:30.000Z,10.48387096774195
2023-05-19T00:28:33.000Z,10.48387096774195
2023-05-19T00:29:35.000Z,10.580645161290338
2023-05-19T00:30:37.000Z,10.48387096774195
2023-05-19T00:31:39.000Z,10.580645161290338
2023-05-19T00:32:41.000Z,10.580645161290338
2023-05-19T00:33:43.000Z,10.580645161290338
2023-05-19T00:34:45.000Z,10.677419354838726
2023-05-19T00:35:48.000Z,10.677419354838726
2023-05-19T00:36:50.000Z,10.677419354838726
2023-05-19T00:37:52.000Z,10.677419354838726
2023-05-19T00:38:54.000Z,10.580645161290338
2023-05-19T00:39:56.000Z,10.677419354838726
2023-05-19T00:40:58.000Z,10.677419354838726
2023-05-19T00:42:00.000Z,10.677419354838726
2023-05-19T00:43:03.000Z,10.677419354838726
2023-05-19T00:44:05.000Z,10.677419354838726
2023-05-19T00:45:07.000Z,10.677419354838726
2023-05-19T00:46:09.000Z,10.774193548387114
2023-05-19T00:47:11.000Z,10.774193548387114
2023-05-19T00:48:13.000Z,10.774193548387114
2023-05-19T00:49:15.000Z,10.774193548387114
2023-05-19T00:50:17.000Z,10.774193548387114
2023-05-19T00:51:20.000Z,10.774193548387114
2023-05-19T00:52:27.000Z,10.774193548387114
2023-05-19T00:53:29.000Z,10.870967741935502
2023-05-19T00:54:31.000Z,10.870967741935502
2023-05-19T00:55:33.000Z,10.870967741935502
2023-05-19T00:56:35.000Z,10.870967741935502
2023-05-19T00:57:38.000Z,10.870967741935502
2023-05-19T00:58:40.000Z,10.870967741935502
2023-05-19T00:59:42.000Z,10.870967741935502
2023-05-19T01:00:44.000Z,10.96774193548389
2023-05-19T01:01:46.000Z,10.96774193548389
2023-05-19T01:02:48.000Z,10.96774193548389
2023-05-19T01:03:50.000Z,10.96774193548389
2023-05-19T01:04:53.000Z,10.96774193548389
2023-05-19T01:05:55.000Z,10.96774193548389
2023-05-19T01:06:57.000Z,10.96774193548389
2023-05-19T01:07:59.000Z,10.96774193548389
2023-05-19T01:09:01.000Z,10.96774193548389
2023-05-19T01:10:03.000Z,10.96774193548389
2023-05-19T01:11:05.000Z,10.96774193548389
2023-05-19T01:12:07.000Z,10.96774193548389
2023-05-19T01:13:10.000Z,10.96774193548389
2023-05-19T01:14:12.000Z,10.96774193548389
2023-05-19T01:15:14.000Z,10.96774193548389
2023-05-19T01:16:16.000Z,10.96774193548389
2023-05-19T01:17:18.000Z,10.96774193548389
2023-05-19T01:18:20.000Z,11.064516129032278
2023-05-19T01:19:22.000Z,10.96774193548389
2023-05-19T01:20:25.000Z,10.96774193548389
2023-05-19T01:21:27.000Z,10.96774193548389
2023-05-19T01:22:29.000Z,10.96774193548389
2023-05-19T01:23:31.000Z,10.96774193548389
2023-05-19T01:24:33.000Z,10.96774193548389
2023-05-19T01:25:35.000Z,11.064516129032278
2023-05-19T01:26:37.000Z,11.064516129032278
2023-05-19T01:27:40.000Z,11.064516129032278
2023-05-19T01:28:42.000Z,10.96774193548389
2023-05-19T01:29:44.000Z,11.064516129032278
2023-05-19T01:30:46.000Z,11.064516129032278
2023-05-19T01:31:49.000Z,11.161290322580665
2023-05-19T01:32:51.000Z,11.064516129032278
2023-05-19T01:33:53.000Z,11.161290322580665
2023-05-19T01:34:55.000Z,11.064516129032278
2023-05-19T01:35:58.000Z,11.161290322580665
2023-05-19T01:37:00.000Z,11.161290322580665
2023-05-19T01:38:02.000Z,11.161290322580665
2023-05-19T01:39:04.000Z,11.161290322580665
2023-05-19T01:40:06.000Z,11.161290322580665
2023-05-19T01:41:08.000Z,11.161290322580665
2023-05-19T01:42:10.000Z,11.161290322580665
2023-05-19T01:43:12.000Z,11.161290322580665
2023-05-19T01:44:15.000Z,11.258064516129053
2023-05-19T01:45:17.000Z,11.161290322580665
2023-05-19T01:46:19.000Z,11.258064516129053
2023-05-19T01:47:21.000Z,11.161290322580665
2023-05-19T01:48:23.000Z,11.258064516129053
2023-05-19T01:49:25.000Z,11.258064516129053
2023-05-19T01:50:27.000Z,11.258064516129053
2023-05-19T01:51:30.000Z,11.161290322580665
2023-05-19T01:52:32.000Z,11.258064516129053
2023-05-19T01:53:34.000Z,11.161290322580665
2023-05-19T01:54:36.000Z,11.258064516129053
2023-05-19T01:55:38.000Z,11.258064516129053
2023-05-19T01:56:40.000Z,11.258064516129053
2023-05-19T01:57:42.000Z,11.258064516129053
2023-05-19T01:58:44.000Z,11.258064516129053
2023-05-19T01:59:47.000Z,11.258064516129053
2023-05-19T02:00:49.000Z,11.258064516129053
2023-05-19T02:01:51.000Z,11.258064516129053
2023-05-19T02:02:53.000Z,11.258064516129053
2023-05-19T02:03:55.000Z,11.258064516129053
2023-05-19T02:04:57.000Z,11.258064516129053
2023-05-19T02:05:59.000Z,11.354838709677441
2023-05-19T02:07:02.000Z,11.354838709677441
2023-05-19T02:08:04.000Z,11.354838709677441
2023-05-19T02:09:06.000Z,11.354838709677441
2023-05-19T02:10:08.000Z,11.354838709677441
2023-05-19T02:11:10.000Z,11.354838709677441
2023-05-19T02:12:12.000Z,11.45161290322583
2023-05-19T02:13:14.000Z,11.354838709677441
2023-05-19T02:14:17.000Z,11.354838709677441
2023-05-19T02:15:19.000Z,11.45161290322583
2023-05-19T02:16:21.000Z,11.45161290322583
2023-05-19T02:17:23.000Z,11.45161290322583
2023-05-19T02:18:25.000Z,11.45161290322583
2023-05-19T02:19:27.000Z,11.45161290322583
2023-05-19T02:20:29.000Z,11.45161290322583
2023-05-19T02:21:32.000Z,11.45161290322583
2023-05-19T02:22:34.000Z,11.45161290322583
2023-05-19T02:23:36.000Z,11.45161290322583
2023-05-19T02:24:38.000Z,11.548387096774217
2023-05-19T02:25:40.000Z,11.548387096774217
2023-05-19T02:26:42.000Z,11.548387096774217
2023-05-19T02:27:45.000Z,11.548387096774217
2023-05-19T02:28:47.000Z,11.548387096774217
2023-05-19T02:29:49.000Z,11.548387096774217
2023-05-19T02:30:51.000Z,11.645161290322605
2023-05-19T02:31:53.000Z,11.645161290322605
2023-05-19T02:32:55.000Z,11.645161290322605
2023-05-19T02:33:57.000Z,11.645161290322605
2023-05-19T02:34:59.000Z,11.548387096774217
2023-05-19T02:36:02.000Z,11.645161290322605
2023-05-19T02:37:05.000Z,11.741935483870993
2023-05-19T02:38:07.000Z,11.741935483870993
2023-05-19T02:39:09.000Z,11.741935483870993
2023-05-19T02:40:11.000Z,11.741935483870993
2023-05-19T02:41:13.000Z,11.83870967741938
2023-05-19T02:42:15.000Z,11.83870967741938
2023-05-19T02:43:17.000Z,11.741935483870993
2023-05-19T02:44:20.000Z,11.83870967741938
2023-05-19T02:45:22.000Z,11.83870967741938
2023-05-19T02:46:24.000Z,11.83870967741938
2023-05-19T02:47:26.000Z,11.83870967741938
2023-05-19T02:48:28.000Z,11.935483870967769
2023-05-19T02:49:30.000Z,11.935483870967769
2023-05-19T02:50:32.000Z,11.935483870967769
2023-05-19T02:51:35.000Z,11.935483870967769
2023-05-19T02:52:37.000Z,11.935483870967769
2023-05-19T02:53:39.000Z,12.032258064516157
2023-05-19T02:54:41.000Z,12.032258064516157
2023-05-19T02:55:43.000Z,12.032258064516157
2023-05-19T02:56:45.000Z,12.032258064516157
2023-05-19T02:57:47.000Z,12.032258064516157
2023-05-19T02:58:50.000Z,12.032258064516157
2023-05-19T02:59:52.000Z,12.129032258064544
2023-05-19T03:00:54.000Z,12.129032258064544
2023-05-19T03:01:56.000Z,12.129032258064544
2023-05-19T03:02:58.000Z,12.225806451612932
2023-05-19T03:04:00.000Z,12.225806451612932
2023-05-19T03:05:02.000Z,12.225806451612932
2023-05-19T03:06:05.000Z,12.225806451612932
2023-05-19T03:07:07.000Z,12.225806451612932
2023-05-19T03:08:09.000Z,12.225806451612932
2023-05-19T03:09:11.000Z,12.225806451612932
2023-05-19T03:10:13.000Z,12.32258064516132
2023-05-19T03:11:15.000Z,12.419354838709708
2023-05-19T03:12:17.000Z,12.419354838709708
2023-05-19T03:13:19.000Z,12.32258064516132
2023-05-19T03:14:22.000Z,12.419354838709708
2023-05-19T03:15:24.000Z,12.419354838709708
2023-05-19T03:16:26.000Z,12.419354838709708
2023-05-19T03:17:33.000Z,12.419354838709708
2023-05-19T03:18:35.000Z,12.419354838709708
2023-05-19T03:19:37.000Z,12.516129032258096
2023-05-19T03:20:39.000Z,12.516129032258096
2023-05-19T03:21:42.000Z,12.516129032258096
2023-05-19T03:22:44.000Z,12.612903225806484
2023-05-19T03:23:46.000Z,12.516129032258096
2023-05-19T03:24:48.000Z,12.612903225806484
2023-05-19T03:25:50.000Z,12.516129032258096
2023-05-19T03:26:52.000Z,12.516129032258096
2023-05-19T03:27:54.000Z,12.516129032258096
2023-05-19T03:28:57.000Z,12.516129032258096
2023-05-19T03:29:59.000Z,12.419354838709708
2023-05-19T03:31:01.000Z,12.516129032258096
2023-05-19T03:32:03.000Z,12.516129032258096
2023-05-19T03:33:05.000Z,12.516129032258096
2023-05-19T03:34:07.000Z,12.516129032258096
2023-05-19T03:35:09.000Z,12.516129032258096
2023-05-19T03:36:12.000Z,12.516129032258096
2023-05-19T03:37:14.000Z,12.516129032258096
2023-05-19T03:38:16.000Z,12.516129032258096
2023-05-19T03:39:18.000Z,12.516129032258096
2023-05-19T03:40:20.000Z,12.516129032258096
2023-05-19T03:41:22.000Z,12.516129032258096
2023-05-19T03:42:24.000Z,12.516129032258096
2023-05-19T03:43:27.000Z,12.612903225806484
2023-05-19T03:44:29.000Z,12.612903225806484
2023-05-19T03:45:31.000Z,12.516129032258096
2023-05-19T03:46:33.000Z,12.612903225806484
2023-05-19T03:47:35.000Z,12.612903225806484
2023-05-19T03:48:37.000Z,12.612903225806484
2023-05-19T03:49:39.000Z,12.612903225806484
2023-05-19T03:50:42.000Z,12.612903225806484
2023-05-19T03:51:44.000Z,12.612903225806484
2023-05-19T03:52:46.000Z,12.612903225806484
2023-05-19T03:53:48.000Z,12.709677419354872
2023-05-19T03:54:50.000Z,12.612903225806484
2023-05-19T03:55:52.000Z,12.709677419354872
2023-05-19T03:56:59.000Z,12.709677419354872
2023-05-19T03:58:02.000Z,12.612903225806484
2023-05-19T03:59:04.000Z,12.612903225806484
2023-05-19T04:00:06.000Z,12.419354838709708
2023-05-19T04:01:08.000Z,12.419354838709708
2023-05-19T04:02:10.000Z,12.516129032258096
2023-05-19T04:03:12.000Z,12.612903225806484
2023-05-19T04:04:14.000Z,12.612903225806484
2023-05-19T04:05:16.000Z,12.516129032258096
2023-05-19T04:06:19.000Z,12.516129032258096
2023-05-19T04:07:21.000Z,12.516129032258096
2023-05-19T04:08:23.000Z,12.516129032258096
2023-05-19T04:09:25.000Z,12.516129032258096
2023-05-19T04:10:27.000Z,12.516129032258096
2023-05-19T04:11:29.000Z,12.516129032258096
2023-05-19T04:12:32.000Z,12.516129032258096
2023-05-19T04:13:34.000Z,12.516129032258096
2023-05-19T04:14:36.000Z,12.612903225806484
2023-05-19T04:15:38.000Z,12.516129032258096
2023-05-19T04:16:40.000Z,12.516129032258096
2023-05-19T04:17:42.000Z,12.516129032258096
2023-05-19T04:18:44.000Z,12.612903225806484
2023-05-19T04:19:46.000Z,12.612903225806484
2023-05-19T04:20:49.000Z,12.516129032258096
2023-05-19T04:21:51.000Z,12.516129032258096
2023-05-19T04:22:53.000Z,12.516129032258096
2023-05-19T04:23:55.000Z,12.516129032258096
2023-05-19T04:24:57.000Z,12.516129032258096
2023-05-19T04:25:59.000Z,12.419354838709708
2023-05-19T04:27:01.000Z,12.516129032258096
2023-05-19T04:28:04.000Z,12.612903225806484
2023-05-19T04:29:06.000Z,12.612903225806484
2023-05-19T04:30:08.000Z,12.516129032258096
2023-05-19T04:31:10.000Z,12.612903225806484
2023-05-19T04:32:12.000Z,12.612903225806484
2023-05-19T04:33:14.000Z,12.612903225806484
2023-05-19T04:34:16.000Z,12.612903225806484
2023-05-19T04:35:19.000Z,12.612903225806484
2023-05-19T04:36:21.000Z,12.612903225806484
2023-05-19T04:37:23.000Z,12.612903225806484
2023-05-19T04:38:25.000Z,12.612903225806484
2023-05-19T04:39:27.000Z,12.612903225806484
2023-05-19T04:40:29.000Z,12.612903225806484
2023-05-19T04:41:31.000Z,12.612903225806484
2023-05-19T04:42:33.000Z,12.612903225806484
2023-05-19T04:43:36.000Z,12.709677419354872
2023-05-19T04:44:38.000Z,12.612903225806484
2023-05-19T04:45:40.000Z,12.612903225806484
2023-05-19T04:46:42.000Z,12.612903225806484
2023-05-19T04:47:44.000Z,12.612903225806484
2023-05-19T04:48:46.000Z,12.612903225806484
2023-05-19T04:49:49.000Z,12.612903225806484
2023-05-19T04:50:51.000Z,12.516129032258096
2023-05-19T04:51:53.000Z,12.612903225806484
2023-05-19T04:52:55.000Z,12.516129032258096
2023-05-19T04:53:57.000Z,12.612903225806484
2023-05-19T04:54:59.000Z,12.612903225806484
2023-05-19T04:56:01.000Z,12.612903225806484
2023-05-19T04:57:04.000Z,12.612903225806484
2023-05-19T04:58:06.000Z,12.612903225806484
2023-05-19T04:59:08.000Z,12.612903225806484
2023-05-19T05:00:10.000Z,12.709677419354872
2023-05-19T05:01:12.000Z,12.612903225806484
2023-05-19T05:02:14.000Z,12.612903225806484
2023-05-19T05:03:17.000Z,12.709677419354872
2023-05-19T05:04:19.000Z,12.709677419354872
2023-05-19T05:05:21.000Z,12.709677419354872
2023-05-19T05:06:23.000Z,12.709677419354872
2023-05-19T05:07:25.000Z,12.709677419354872
2023-05-19T05:08:27.000Z,12.709677419354872
2023-05-19T05:09:29.000Z,12.709677419354872
2023-05-19T05:10:32.000Z,12.612903225806484
2023-05-19T05:11:34.000Z,12.709677419354872
2023-05-19T05:12:36.000Z,12.612903225806484
2023-05-19T05:13:38.000Z,12.612903225806484
2023-05-19T05:14:40.000Z,12.612903225806484
2023-05-19T05:15:42.000Z,12.612903225806484
2023-05-19T05:16:44.000Z,12.709677419354872
2023-05-19T05:17:46.000Z,12.612903225806484
2023-05-19T05:18:49.000Z,12.612903225806484
2023-05-19T05:19:51.000Z,12.709677419354872
2023-05-19T05:20:53.000Z,12.709677419354872
2023-05-19T05:21:55.000Z,12.612903225806484
2023-05-19T05:22:57.000Z,12.709677419354872
2023-05-19T05:23:59.000Z,12.612903225806484
2023-05-19T05:25:02.000Z,12.709677419354872
2023-05-19T05:26:04.000Z,12.709677419354872
2023-05-19T05:27:06.000Z,12.80645161290326
2023-05-19T05:28:08.000Z,13.387096774193587
2023-05-19T05:29:15.000Z,14.354838709677466
2023-05-19T05:30:17.000Z,14.16129032258069
2023-05-19T05:31:19.000Z,14.16129032258069
2023-05-19T05:32:21.000Z,14.064516129032302
2023-05-19T05:33:24.000Z,14.16129032258069
2023-05-19T05:34:26.000Z,14.258064516129078
2023-05-19T05:35:28.000Z,14.16129032258069
2023-05-19T05:36:30.000Z,14.16129032258069
2023-05-19T05:37:32.000Z,14.16129032258069
2023-05-19T05:38:35.000Z,14.064516129032302
2023-05-19T05:39:37.000Z,14.258064516129078
2023-05-19T05:40:39.000Z,14.258064516129078
2023-05-19T05:41:41.000Z,14.354838709677466
2023-05-19T05:42:43.000Z,14.16129032258069
2023-05-19T05:43:45.000Z,14.16129032258069
2023-05-19T05:44:47.000Z,14.258064516129078
2023-05-19T05:45:49.000Z,14.258064516129078
2023-05-19T05:46:52.000Z,14.258064516129078
2023-05-19T05:47:54.000Z,14.354838709677466
2023-05-19T05:48:56.000Z,14.354838709677466
2023-05-19T05:49:58.000Z,14.64516129032263
2023-05-19T05:51:00.000Z,14.548387096774242
2023-05-19T05:52:02.000Z,14.64516129032263
2023-05-19T05:53:04.000Z,14.741935483871018
2023-05-19T05:54:06.000Z,14.935483870967794
2023-05-19T05:55:09.000Z,14.838709677419406
2023-05-19T05:56:11.000Z,15.322580645161345
2023-05-19T05:57:13.000Z,15.032258064516181
2023-05-19T05:58:15.000Z,15.516129032258121
2023-05-19T05:59:17.000Z,15.322580645161345
2023-05-19T06:00:19.000Z,15.322580645161345
2023-05-19T06:01:21.000Z,15.419354838709733
2023-05-19T06:02:24.000Z,15.419354838709733
2023-05-19T06:03:26.000Z,15.419354838709733
2023-05-19T06:04:28.000Z,15.322580645161345
2023-05-19T06:05:30.000Z,15.419354838709733
2023-05-19T06:06:32.000Z,15.322580645161345
2023-05-19T06:07:34.000Z,15.322580645161345
2023-05-19T06:08:36.000Z,15.322580645161345
2023-05-19T06:09:38.000Z,15.419354838709733
2023-05-19T06:10:40.000Z,15.709677419354897
2023-05-19T06:11:43.000Z,15.709677419354897
2023-05-19T06:12:45.000Z,15.709677419354897
2023-05-19T06:13:47.000Z,15.516129032258121
2023-05-19T06:14:49.000Z,15.516129032258121
2023-05-19T06:15:51.000Z,15.709677419354897
2023-05-19T06:16:53.000Z,15.612903225806509
2023-05-19T06:17:55.000Z,15.612903225806509
2023-05-19T06:18:58.000Z,15.612903225806509
2023-05-19T06:20:00.000Z,15.709677419354897
2023-05-19T06:21:02.000Z,15.612903225806509
2023-05-19T06:22:04.000Z,15.322580645161345
2023-05-19T06:23:06.000Z,15.419354838709733
2023-05-19T06:24:08.000Z,15.709677419354897
2023-05-19T06:25:10.000Z,15.709677419354897
2023-05-19T06:26:13.000Z,15.709677419354897
2023-05-19T06:27:15.000Z,15.709677419354897
2023-05-19T06:28:17.000Z,15.709677419354897
2023-05-19T06:29:19.000Z,15.709677419354897
2023-05-19T06:30:21.000Z,15.709677419354897
2023-05-19T06:31:23.000Z,15.612903225806509
2023-05-19T06:32:25.000Z,15.322580645161345
2023-05-19T06:33:28.000Z,15.225806451612957
2023-05-19T06:34:30.000Z,15.225806451612957
2023-05-19T06:35:32.000Z,15.225806451612957
2023-05-19T06:36:34.000Z,15.225806451612957
2023-05-19T06:37:36.000Z,15.322580645161345
2023-05-19T06:38:38.000Z,15.322580645161345
2023-05-19T06:39:40.000Z,15.322580645161345
2023-05-19T06:40:43.000Z,15.12903225806457
2023-05-19T06:41:45.000Z,15.032258064516181
2023-05-19T06:42:47.000Z,14.935483870967794
2023-05-19T06:43:49.000Z,15.032258064516181
2023-05-19T06:44:51.000Z,15.032258064516181
2023-05-19T06:45:53.000Z,15.032258064516181
2023-05-19T06:46:55.000Z,14.935483870967794
2023-05-19T06:47:57.000Z,15.032258064516181
2023-05-19T06:49:00.000Z,13.967741935483915
2023-05-19T06:50:02.000Z,14.064516129032302
2023-05-19T06:51:04.000Z,14.16129032258069
2023-05-19T06:52:06.000Z,14.064516129032302
2023-05-19T06:53:08.000Z,14.16129032258069
2023-05-19T06:54:10.000Z,14.16129032258069
2023-05-19T06:55:12.000Z,14.258064516129078
2023-05-19T06:56:15.000Z,14.451612903225854
2023-05-19T06:57:17.000Z,14.548387096774242
2023-05-19T06:58:19.000Z,14.548387096774242
2023-05-19T06:59:26.000Z,15.12903225806457
2023-05-19T07:00:28.000Z,14.451612903225854
2023-05-19T07:01:30.000Z,14.451612903225854
2023-05-19T07:02:32.000Z,14.548387096774242
2023-05-19T07:03:35.000Z,14.451612903225854
2023-05-19T07:04:37.000Z,14.451612903225854
2023-05-19T07:05:39.000Z,14.354838709677466
2023-05-19T07:06:41.000Z,14.354838709677466
2023-05-19T07:07:43.000Z,14.258064516129078
2023-05-19T07:08:45.000Z,14.354838709677466
2023-05-19T07:09:47.000Z,14.354838709677466
2023-05-19T07:10:50.000Z,14.354838709677466
2023-05-19T07:11:52.000Z,14.451612903225854
2023-05-19T07:12:54.000Z,14.354838709677466
2023-05-19T07:13:56.000Z,14.451612903225854
2023-05-19T07:14:58.000Z,14.548387096774242
2023-05-19T07:16:00.000Z,14.64516129032263
2023-05-19T07:17:02.000Z,14.548387096774242
2023-05-19T07:18:05.000Z,14.64516129032263
2023-05-19T07:19:07.000Z,14.64516129032263
2023-05-19T07:20:09.000Z,14.64516129032263
2023-05-19T07:21:11.000Z,14.64516129032263
2023-05-19T07:22:13.000Z,14.64516129032263
2023-05-19T07:23:15.000Z,14.548387096774242
2023-05-19T07:24:17.000Z,14.741935483871018
2023-05-19T07:25:20.000Z,14.741935483871018
2023-05-19T07:26:22.000Z,14.838709677419406
2023-05-19T07:27:24.000Z,14.838709677419406
2023-05-19T07:28:26.000Z,14.838709677419406
2023-05-19T07:29:28.000Z,15.12903225806457
2023-05-19T07:30:30.000Z,15.322580645161345
2023-05-19T07:31:32.000Z,15.225806451612957
2023-05-19T07:32:34.000Z,15.225806451612957
2023-05-19T07:33:37.000Z,15.12903225806457
2023-05-19T07:34:39.000Z,15.12903225806457
2023-05-19T07:35:41.000Z,15.12903225806457
2023-05-19T07:36:43.000Z,15.225806451612957
2023-05-19T07:37:45.000Z,15.12903225806457
2023-05-19T07:38:47.000Z,15.12903225806457
2023-05-19T07:39:49.000Z,15.225806451612957
2023-05-19T07:40:52.000Z,15.225806451612957
2023-05-19T07:41:54.000Z,15.12903225806457
2023-05-19T07:42:56.000Z,15.225806451612957
2023-05-19T07:43:58.000Z,15.225806451612957
2023-05-19T07:45:00.000Z,15.12903225806457
2023-05-19T07:46:02.000Z,15.12903225806457
2023-05-19T07:47:04.000Z,15.12903225806457
2023-05-19T07:48:07.000Z,15.12903225806457
2023-05-19T07:49:09.000Z,15.032258064516181
2023-05-19T07:50:11.000Z,15.032258064516181
2023-05-19T07:51:13.000Z,15.12903225806457
2023-05-19T07:52:15.000Z,15.12903225806457
2023-05-19T07:53:17.000Z,15.032258064516181
2023-05-19T07:54:19.000Z,15.12903225806457
2023-05-19T07:55:22.000Z,15.12903225806457
2023-05-19T07:56:24.000Z,15.12903225806457
2023-05-19T07:57:26.000Z,15.12903225806457
2023-05-19T07:58:28.000Z,15.225806451612957
2023-05-19T07:59:30.000Z,15.225806451612957
2023-05-19T08:00:32.000Z,15.225806451612957
2023-05-19T08:01:34.000Z,15.322580645161345
2023-05-19T08:02:36.000Z,15.225806451612957
2023-05-19T08:03:39.000Z,15.322580645161345
2023-05-19T08:04:41.000Z,15.322580645161345
2023-05-19T08:05:43.000Z,15.419354838709733
2023-05-19T08:06:45.000Z,15.322580645161345
2023-05-19T08:07:47.000Z,15.322580645161345
2023-05-19T08:08:49.000Z,15.12903225806457
2023-05-19T08:09:51.000Z,15.225806451612957
2023-05-19T08:10:53.000Z,15.12903225806457
2023-05-19T08:11:56.000Z,15.225806451612957
2023-05-19T08:12:58.000Z,15.322580645161345
2023-05-19T08:14:00.000Z,15.225806451612957
2023-05-19T08:15:02.000Z,15.322580645161345
2023-05-19T08:16:04.000Z,15.225806451612957
2023-05-19T08:17:06.000Z,15.12903225806457
2023-05-19T08:18:08.000Z,15.12903225806457
2023-05-19T08:19:11.000Z,15.322580645161345
2023-05-19T08:20:13.000Z,15.322580645161345
2023-05-19T08:21:15.000Z,15.225806451612957
2023-05-19T08:22:17.000Z,15.225806451612957
2023-05-19T08:23:19.000Z,15.225806451612957
2023-05-19T08:24:21.000Z,15.225806451612957
2023-05-19T08:25:23.000Z,14.64516129032263
2023-05-19T08:26:26.000Z,14.64516129032263
2023-05-19T08:27:28.000Z,14.64516129032263
2023-05-19T08:28:30.000Z,14.548387096774242
2023-05-19T08:29:32.000Z,14.548387096774242
2023-05-19T08:30:34.000Z,14.354838709677466
2023-05-19T08:31:37.000Z,14.451612903225854
2023-05-19T08:32:39.000Z,14.548387096774242
2023-05-19T08:33:41.000Z,14.548387096774242
2023-05-19T08:34:43.000Z,14.64516129032263
2023-05-19T08:35:45.000Z,14.64516129032263
2023-05-19T08:36:47.000Z,14.64516129032263
2023-05-19T08:37:49.000Z,14.64516129032263
2023-05-19T08:38:52.000Z,14.64516129032263
2023-05-19T08:39:54.000Z,14.64516129032263
2023-05-19T08:40:56.000Z,14.64516129032263
2023-05-19T08:41:58.000Z,14.64516129032263
2023-05-19T08:43:00.000Z,14.64516129032263
2023-05-19T08:44:02.000Z,14.64516129032263
2023-05-19T08:45:04.000Z,14.548387096774242
2023-05-19T08:46:07.000Z,14.548387096774242
2023-05-19T08:47:09.000Z,14.548387096774242
2023-05-19T08:48:11.000Z,14.548387096774242
2023-05-19T08:49:13.000Z,14.64516129032263
2023-05-19T08:50:15.000Z,14.64516129032263
2023-05-19T08:51:17.000Z,14.64516129032263
2023-05-19T08:52:19.000Z,14.258064516129078
2023-05-19T08:53:21.000Z,14.451612903225854
2023-05-19T08:54:24.000Z,14.354838709677466
2023-05-19T08:55:26.000Z,14.064516129032302
2023-05-19T08:56:28.000Z,14.258064516129078
2023-05-19T08:57:30.000Z,14.258064516129078
2023-05-19T08:58:32.000Z,14.354838709677466
2023-05-19T08:59:34.000Z,14.258064516129078
2023-05-19T09:00:36.000Z,14.064516129032302
2023-05-19T09:01:39.000Z,14.064516129032302
2023-05-19T09:02:41.000Z,13.967741935483915
2023-05-19T09:03:43.000Z,14.064516129032302
2023-05-19T09:04:45.000Z,13.967741935483915
2023-05-19T09:05:47.000Z,13.967741935483915
2023-05-19T09:06:49.000Z,13.774193548387139
2023-05-19T09:07:51.000Z,13.774193548387139
2023-05-19T09:08:54.000Z,13.580645161290363
2023-05-19T09:09:56.000Z,13.774193548387139
2023-05-19T09:10:58.000Z,13.870967741935527
2023-05-19T09:12:00.000Z,14.548387096774242
2023-05-19T09:13:02.000Z,14.838709677419406
2023-05-19T09:14:04.000Z,14.935483870967794
2023-05-19T09:15:06.000Z,14.935483870967794
2023-05-19T09:16:08.000Z,15.12903225806457
2023-05-19T09:17:11.000Z,15.12903225806457
2023-05-19T09:18:13.000Z,15.12903225806457
2023-05-19T09:19:15.000Z,15.12903225806457
2023-05-19T09:20:22.000Z,15.225806451612957
2023-05-19T09:21:24.000Z,15.225806451612957
2023-05-19T09:22:26.000Z,15.225806451612957
2023-05-19T09:23:28.000Z,14.741935483871018
2023-05-19T09:24:31.000Z,16.87096774193555
2023-05-19T09:25:33.000Z,17.161290322580715
2023-05-19T09:26:35.000Z,15.903225806451672